Time;durP1;ratioP1;P1;durP2;ratioP2;P2;SDS_P1;SDS_P2;PMS_P1;PMS_P2;Temp;Humidity;BMP_temperature;BMP_pressure;BME280_temperature;BME280_humidity;BME280_pressure;Samples;Min_cycle;Max_cycle;Signal;HPM_P1;HPM_P2
2024/01/11 00:04:18;;;;;;;31.40;16.27;;;;;;;;;;12850945;23;20370;-80
2024/01/11 00:09:21;;;;;;;27.63;16.35;;;;;;;;;;12850650;23;20428;-81
2024/01/11 00:14:24;;;;;;;31.35;15.38;;;;;;;;;;12850443;23;20374;-81
2024/01/11 00:19:27;;;;;;;27.30;14.77;;;;;;;;;;12856013;23;20444;-80
2024/01/11 00:24:29;;;;;;;25.63;14.27;;;;;;;;;;12848371;23;20455;-80
2024/01/11 00:29:33;;;;;;;29.80;16.05;;;;;;;;;;12851496;23;20370;-81
2024/01/11 00:34:35;;;;;;;25.67;14.15;;;;;;;;;;12849928;23;20444;-80
2024/01/11 00:39:38;;;;;;;26.77;15.07;;;;;;;;;;12849055;23;20448;-81
2024/01/11 00:44:41;;;;;;;27.58;15.43;;;;;;;;;;12850287;23;20378;-80
2024/01/11 00:49:44;;;;;;;27.50;15.40;;;;;;;;;;12851177;23;20837;-81
2024/01/11 00:54:46;;;;;;;30.98;15.23;;;;;;;;;;12854630;23;20378;-81
2024/01/11 00:59:50;;;;;;;30.00;14.67;;;;;;;;;;12854764;23;20498;-81
2024/01/11 01:04:52;;;;;;;29.10;14.20;;;;;;;;;;12854187;23;20378;-80
2024/01/11 01:09:54;;;;;;;30.92;14.80;;;;;;;;;;12854962;23;20435;-80
2024/01/11 01:14:58;;;;;;;28.42;14.70;;;;;;;;;;12861811;23;20756;-80
2024/01/11 01:20:00;;;;;;;28.27;14.82;;;;;;;;;;12853471;23;20374;-80
2024/01/11 01:25:03;;;;;;;29.55;14.55;;;;;;;;;;12853542;23;20435;-80
2024/01/11 01:30:09;;;;;;;27.07;14.67;;;;;;;;;;12853961;23;20366;-80
2024/01/11 01:35:11;;;;;;;25.45;14.35;;;;;;;;;;12854959;23;20432;-80
2024/01/11 01:40:13;;;;;;;24.25;13.82;;;;;;;;;;12853823;23;20436;-80
2024/01/11 01:45:17;;;;;;;26.80;14.50;;;;;;;;;;12854415;23;20432;-81
2024/01/11 01:50:21;;;;;;;29.20;14.48;;;;;;;;;;12854874;23;20369;-81
2024/01/11 01:55:24;;;;;;;27.13;13.90;;;;;;;;;;12852588;23;20366;-80
2024/01/11 02:00:28;;;;;;;24.13;13.70;;;;;;;;;;12852654;23;20452;-80
2024/01/11 02:05:31;;;;;;;32.03;13.65;;;;;;;;;;12853359;23;20370;-81
2024/01/11 02:10:34;;;;;;;26.38;14.02;;;;;;;;;;12859227;23;20362;-81
2024/01/11 02:15:38;;;;;;;23.73;13.73;;;;;;;;;;12853567;23;20469;-81
2024/01/11 02:20:40;;;;;;;25.42;13.38;;;;;;;;;;12849655;23;20405;-79
2024/01/11 02:25:44;;;;;;;24.40;12.23;;;;;;;;;;12846899;23;20366;-81
2024/01/11 02:30:46;;;;;;;23.57;13.57;;;;;;;;;;12852055;23;20374;-81
2024/01/11 02:35:49;;;;;;;21.95;13.30;;;;;;;;;;12852562;23;20837;-80
2024/01/11 02:40:52;;;;;;;25.17;13.70;;;;;;;;;;12852542;23;20374;-81
2024/01/11 02:45:55;;;;;;;24.67;12.83;;;;;;;;;;12851967;23;20911;-80
2024/01/11 02:50:58;;;;;;;25.87;13.00;;;;;;;;;;12849933;23;20459;-81
2024/01/11 02:56:02;;;;;;;25.53;13.13;;;;;;;;;;12852426;23;20477;-81
2024/01/11 03:01:04;;;;;;;25.65;12.80;;;;;;;;;;12849539;23;20440;-81
2024/01/11 03:06:07;;;;;;;24.85;13.25;;;;;;;;;;12854624;23;20460;-80
2024/01/11 03:11:10;;;;;;;24.03;13.37;;;;;;;;;;12849953;23;20370;-82
2024/01/11 03:16:13;;;;;;;25.88;13.05;;;;;;;;;;12848551;23;20849;-81
2024/01/11 03:21:15;;;;;;;25.00;12.52;;;;;;;;;;12850054;23;20370;-81
2024/01/11 03:26:19;;;;;;;23.63;12.43;;;;;;;;;;12846918;23;20858;-81
2024/01/11 03:31:22;;;;;;;20.98;12.00;;;;;;;;;;12843641;23;20738;-82
2024/01/11 03:36:25;;;;;;;21.88;11.75;;;;;;;;;;12841808;23;20390;-81
2024/01/11 03:41:28;;;;;;;21.00;11.30;;;;;;;;;;12848305;23;20373;-81
2024/01/11 03:46:31;;;;;;;20.58;11.60;;;;;;;;;;12852601;23;20370;-81
2024/01/11 03:51:33;;;;;;;21.67;11.55;;;;;;;;;;12851516;23;20738;-81
2024/01/11 03:56:40;;;;;;;22.38;11.38;;;;;;;;;;12851302;23;20927;-79
2024/01/11 04:01:42;;;;;;;23.98;11.23;;;;;;;;;;12855204;23;20401;-81
2024/01/11 04:06:45;;;;;;;20.07;11.03;;;;;;;;;;12850601;23;20373;-80
2024/01/11 04:11:48;;;;;;;21.35;11.38;;;;;;;;;;12850087;23;20424;-81
2024/01/11 04:16:51;;;;;;;21.40;11.23;;;;;;;;;;12850914;23;20394;-81
2024/01/11 04:21:53;;;;;;;20.20;10.77;;;;;;;;;;12851029;23;20702;-81
2024/01/11 04:26:57;;;;;;;21.00;10.77;;;;;;;;;;12851311;23;20742;-81
2024/01/11 04:31:59;;;;;;;19.95;10.52;;;;;;;;;;12852316;23;20369;-81
2024/01/11 04:37:01;;;;;;;19.48;11.05;;;;;;;;;;12850965;23;20417;-81
2024/01/11 04:42:05;;;;;;;20.63;11.13;;;;;;;;;;12851539;23;20435;-82
2024/01/11 04:47:08;;;;;;;20.10;10.57;;;;;;;;;;12851220;23;20404;-82
2024/01/11 04:52:10;;;;;;;22.07;10.83;;;;;;;;;;12851139;23;20370;-81
2024/01/11 04:57:14;;;;;;;25.35;10.88;;;;;;;;;;12853729;23;20381;-81
2024/01/11 05:02:16;;;;;;;21.15;10.48;;;;;;;;;;12851557;23;20370;-81
2024/01/11 05:07:18;;;;;;;19.35;10.95;;;;;;;;;;12851070;23;20374;-81
2024/01/11 05:12:22;;;;;;;20.15;11.50;;;;;;;;;;12850110;23;20451;-81
2024/01/11 05:17:24;;;;;;;20.07;11.00;;;;;;;;;;12849739;23;20386;-79
2024/01/11 05:22:26;;;;;;;21.95;11.65;;;;;;;;;;12849655;23;20362;-81
2024/01/11 05:27:30;;;;;;;25.43;11.57;;;;;;;;;;12850889;23;20750;-81
2024/01/11 05:32:33;;;;;;;18.42;10.90;;;;;;;;;;12851622;23;20370;-81
2024/01/11 05:37:35;;;;;;;20.02;10.63;;;;;;;;;;12853912;23;20386;-81
2024/01/11 05:42:39;;;;;;;21.23;10.90;;;;;;;;;;12854214;23;20374;-82
2024/01/11 05:47:41;;;;;;;23.00;11.32;;;;;;;;;;12852946;23;20370;-82
2024/01/11 05:52:43;;;;;;;21.48;10.77;;;;;;;;;;12855949;23;20829;-81
2024/01/11 05:57:47;;;;;;;22.83;11.75;;;;;;;;;;12852742;23;20389;-81
2024/01/11 06:02:49;;;;;;;20.58;10.98;;;;;;;;;;12853220;23;20370;-81
2024/01/11 06:07:51;;;;;;;18.87;10.37;;;;;;;;;;12853631;23;20834;-81
2024/01/11 06:12:56;;;;;;;21.10;10.88;;;;;;;;;;12853414;23;20374;-81
2024/01/11 06:17:58;;;;;;;18.20;10.43;;;;;;;;;;12836248;23;20350;-81
2024/01/11 06:23:01;;;;;;;22.08;10.27;;;;;;;;;;12779742;23;20822;-81
2024/01/11 06:28:06;;;;;;;18.45;9.90;;;;;;;;;;12841539;23;20355;-81
2024/01/11 06:33:09;;;;;;;17.10;9.90;;;;;;;;;;12851187;23;20370;-81
2024/01/11 06:38:11;;;;;;;21.88;11.02;;;;;;;;;;12844810;23;20385;-81
2024/01/11 06:43:15;;;;;;;21.35;10.48;;;;;;;;;;12851653;23;20448;-80
2024/01/11 06:48:17;;;;;;;17.97;10.20;;;;;;;;;;12853463;23;20397;-80
2024/01/11 06:53:19;;;;;;;20.77;10.70;;;;;;;;;;12846916;23;20393;-80
2024/01/11 06:58:23;;;;;;;22.23;11.13;;;;;;;;;;12843270;23;20575;-81
2024/01/11 07:03:25;;;;;;;20.80;10.77;;;;;;;;;;12839751;23;20374;-81
2024/01/11 07:08:28;;;;;;;22.08;10.95;;;;;;;;;;12832083;23;20445;-80
2024/01/11 07:13:32;;;;;;;23.10;11.97;;;;;;;;;;12837616;23;20919;-80
2024/01/11 07:18:34;;;;;;;20.87;10.77;;;;;;;;;;12839605;23;20394;-80
2024/01/11 07:23:36;;;;;;;22.20;10.52;;;;;;;;;;12840151;23;20664;-80
2024/01/11 07:28:40;;;;;;;18.10;10.07;;;;;;;;;;12843648;23;20921;-80
2024/01/11 07:33:42;;;;;;;21.23;10.67;;;;;;;;;;12847796;23;20440;-81
2024/01/11 07:38:45;;;;;;;21.52;11.15;;;;;;;;;;12848425;23;20416;-80
2024/01/11 07:43:48;;;;;;;20.87;10.30;;;;;;;;;;12853076;23;20830;-80
2024/01/11 07:48:50;;;;;;;19.75;10.30;;;;;;;;;;12849809;23;20794;-80
2024/01/11 07:53:53;;;;;;;22.25;10.70;;;;;;;;;;12847719;23;20370;-80
2024/01/11 07:58:56;;;;;;;21.23;11.70;;;;;;;;;;12847470;23;20416;-80
2024/01/11 08:04:01;;;;;;;28.00;14.13;;;;;;;;;;12847131;23;20838;-80
2024/01/11 08:09:04;;;;;;;28.25;14.10;;;;;;;;;;12847249;23;20420;-81
2024/01/11 08:14:08;;;;;;;28.00;14.55;;;;;;;;;;12847911;23;20366;-80
2024/01/11 08:19:13;;;;;;;32.65;16.05;;;;;;;;;;12905463;22;20447;-80
2024/01/11 08:24:15;;;;;;;25.45;12.85;;;;;;;;;;12907976;22;20364;-80
2024/01/11 08:29:20;;;;;;;23.65;12.90;;;;;;;;;;12910440;22;20369;-80
2024/01/11 08:34:22;;;;;;;57.20;29.42;;;;;;;;;;12910816;22;20419;-79
2024/01/11 08:39:25;;;;;;;28.52;14.85;;;;;;;;;;12910155;22;20388;-80
2024/01/11 08:44:28;;;;;;;26.47;14.20;;;;;;;;;;12913071;22;20997;-81
2024/01/11 08:49:31;;;;;;;23.88;14.07;;;;;;;;;;12905887;22;20372;-80
2024/01/11 08:54:34;;;;;;;27.73;13.57;;;;;;;;;;12910984;22;20368;-79
2024/01/11 08:59:37;;;;;;;18.23;11.98;;;;;;;;;;12903724;22;20894;-80
2024/01/11 09:04:40;;;;;;;24.23;12.57;;;;;;;;;;12908703;22;20365;-80
2024/01/11 09:09:42;;;;;;;25.08;14.05;;;;;;;;;;12911590;22;20918;-80
2024/01/11 09:14:46;;;;;;;26.83;13.82;;;;;;;;;;12911813;22;20470;-79
2024/01/11 09:19:48;;;;;;;27.20;13.13;;;;;;;;;;12910787;22;20388;-80
2024/01/11 09:24:51;;;;;;;23.90;12.15;;;;;;;;;;12912556;22;20372;-79
2024/01/11 09:29:54;;;;;;;23.70;12.57;;;;;;;;;;12913577;22;20368;-80
2024/01/11 09:34:57;;;;;;;22.40;13.65;;;;;;;;;;12914823;22;20365;-80
2024/01/11 09:40:00;;;;;;;28.13;14.45;;;;;;;;;;12916216;22;20384;-80
2024/01/11 09:45:08;;;;;;;23.67;13.48;;;;;;;;;;12934661;23;20910;-80
2024/01/11 09:50:15;;;;;;;25.00;14.00;;;;;;;;;;12913421;22;20365;-80
2024/01/11 09:55:17;;;;;;;29.38;15.23;;;;;;;;;;12913304;22;20369;-80
2024/01/11 10:00:24;;;;;;;23.55;13.90;;;;;;;;;;12914015;22;20384;-81
2024/01/11 10:05:28;;;;;;;25.93;13.60;;;;;;;;;;12913583;22;21114;-80
2024/01/11 10:10:31;;;;;;;23.63;13.90;;;;;;;;;;12915048;22;20368;-81
2024/01/11 10:15:35;;;;;;;25.58;13.48;;;;;;;;;;12914950;22;20465;-80
2024/01/11 10:20:38;;;;;;;25.27;14.20;;;;;;;;;;12913376;22;21120;-80
2024/01/11 10:25:43;;;;;;;24.73;14.35;;;;;;;;;;12914424;22;21052;-80
2024/01/11 10:30:48;;;;;;;24.03;13.93;;;;;;;;;;12914325;22;20399;-80
2024/01/11 10:35:51;;;;;;;22.33;12.05;;;;;;;;;;12919257;23;20372;-80
2024/01/11 10:40:56;;;;;;;24.67;13.10;;;;;;;;;;12914221;22;20462;-81
2024/01/11 10:46:03;;;;;;;22.40;12.05;;;;;;;;;;12914493;22;20913;-81
2024/01/11 10:51:09;;;;;;;25.27;13.03;;;;;;;;;;12912800;22;20513;-82
2024/01/11 10:56:12;;;;;;;23.57;13.87;;;;;;;;;;12913746;22;20365;-82
2024/01/11 11:01:18;;;;;;;20.93;11.93;;;;;;;;;;12914086;22;20493;-81
2024/01/11 11:06:22;;;;;;;22.50;12.25;;;;;;;;;;12913517;22;20913;-81
2024/01/11 11:11:25;;;;;;;20.07;10.87;;;;;;;;;;12911628;22;20376;-81
2024/01/11 11:16:28;;;;;;;19.47;10.83;;;;;;;;;;12913726;22;20380;-80
2024/01/11 11:21:31;;;;;;;20.20;11.95;;;;;;;;;;12912906;22;20432;-80
2024/01/11 11:26:33;;;;;;;26.33;14.30;;;;;;;;;;12914699;22;20412;-80
2024/01/11 11:31:38;;;;;;;21.23;11.98;;;;;;;;;;12912294;22;20942;-80
2024/01/11 11:36:42;;;;;;;20.98;12.10;;;;;;;;;;12913978;22;21389;-80
2024/01/11 11:41:45;;;;;;;19.15;10.57;;;;;;;;;;12911287;22;20431;-80
2024/01/11 11:46:48;;;;;;;33.10;17.83;;;;;;;;;;12913191;22;20385;-80
2024/01/11 11:51:51;;;;;;;22.20;11.20;;;;;;;;;;12910155;22;20380;-80
2024/01/11 11:56:53;;;;;;;14.53;8.30;;;;;;;;;;12913478;22;20404;-80
2024/01/11 12:01:58;;;;;;;19.30;11.30;;;;;;;;;;12911209;22;20380;-80
2024/01/11 12:07:00;;;;;;;16.73;9.25;;;;;;;;;;12912696;22;20408;-80
2024/01/11 12:12:03;;;;;;;18.20;10.67;;;;;;;;;;12912970;22;20422;-80
2024/01/11 12:17:07;;;;;;;16.23;10.50;;;;;;;;;;12900302;22;20917;-80
2024/01/11 12:22:09;;;;;;;14.15;7.20;;;;;;;;;;12897905;22;20437;-82
2024/01/11 12:27:12;;;;;;;15.13;9.85;;;;;;;;;;12892837;22;20423;-82
2024/01/11 12:32:16;;;;;;;10.30;6.35;;;;;;;;;;12887115;22;20458;-82
2024/01/11 12:37:18;;;;;;;12.10;7.40;;;;;;;;;;12882778;22;20470;-82
2024/01/11 12:42:21;;;;;;;10.97;6.20;;;;;;;;;;12878855;22;20700;-82
2024/01/11 12:47:25;;;;;;;12.52;7.60;;;;;;;;;;12889541;22;20878;-81
2024/01/11 12:52:30;;;;;;;12.17;7.60;;;;;;;;;;12900867;22;20423;-81
2024/01/11 12:57:33;;;;;;;13.23;7.35;;;;;;;;;;12881403;22;20380;-82
2024/01/11 13:02:36;;;;;;;13.98;7.90;;;;;;;;;;12888857;22;20434;-82
2024/01/11 13:07:39;;;;;;;13.02;8.95;;;;;;;;;;12895119;22;20470;-80
2024/01/11 13:12:41;;;;;;;13.15;7.32;;;;;;;;;;12910117;22;20373;-81
2024/01/11 13:17:45;;;;;;;13.73;8.53;;;;;;;;;;12913836;22;20375;-81
2024/01/11 13:22:47;;;;;;;17.70;11.20;;;;;;;;;;12914478;22;20388;-81
2024/01/11 13:27:50;;;;;;;12.30;7.60;;;;;;;;;;12935755;23;20368;-82
2024/01/11 13:32:53;;;;;;;12.70;6.43;;;;;;;;;;12917171;22;20463;-82
2024/01/11 13:37:56;;;;;;;12.10;5.95;;;;;;;;;;12917834;22;20446;-82
2024/01/11 13:42:59;;;;;;;9.98;5.82;;;;;;;;;;12913927;22;20403;-82
2024/01/11 13:48:03;;;;;;;12.38;5.85;;;;;;;;;;12914641;22;20756;-82
2024/01/11 13:53:06;;;;;;;12.95;6.75;;;;;;;;;;12916403;22;20369;-82
2024/01/11 13:58:08;;;;;;;19.90;7.25;;;;;;;;;;12916489;22;20426;-82
2024/01/11 14:03:12;;;;;;;13.35;6.78;;;;;;;;;;12916570;22;20422;-82
2024/01/11 14:08:14;;;;;;;18.10;7.10;;;;;;;;;;12916394;22;20369;-82
2024/01/11 14:13:16;;;;;;;15.67;8.50;;;;;;;;;;12913892;22;20376;-81
2024/01/11 14:18:21;;;;;;;19.00;8.50;;;;;;;;;;12915167;22;20376;-82
2024/01/11 14:23:23;;;;;;;17.00;9.00;;;;;;;;;;12915334;22;20937;-82
2024/01/11 14:28:26;;;;;;;18.43;9.20;;;;;;;;;;12913807;22;20438;-82
2024/01/11 14:33:29;;;;;;;16.00;9.57;;;;;;;;;;12914540;22;20398;-81
2024/01/11 14:38:31;;;;;;;14.77;8.70;;;;;;;;;;12920530;22;20368;-82
2024/01/11 14:43:34;;;;;;;15.03;8.57;;;;;;;;;;12912569;22;20943;-82
2024/01/11 14:48:38;;;;;;;12.70;8.75;;;;;;;;;;12913649;22;20836;-82
2024/01/11 14:53:40;;;;;;;15.17;10.10;;;;;;;;;;12911175;22;20415;-81
2024/01/11 14:58:42;;;;;;;16.27;10.37;;;;;;;;;;12913396;22;20364;-82
2024/01/11 15:03:46;;;;;;;16.90;9.90;;;;;;;;;;12912043;22;20384;-81
2024/01/11 15:08:48;;;;;;;17.23;11.32;;;;;;;;;;12911664;22;21565;-81
2024/01/11 15:13:50;;;;;;;20.17;9.88;;;;;;;;;;12910700;22;20360;-81
2024/01/11 15:18:54;;;;;;;25.05;12.40;;;;;;;;;;12932789;23;20372;-80
2024/01/11 15:23:56;;;;;;;23.65;11.27;;;;;;;;;;12910650;22;20462;-80
2024/01/11 15:28:59;;;;;;;21.77;10.70;;;;;;;;;;12912327;22;20369;-81
2024/01/11 15:34:03;;;;;;;20.13;10.85;;;;;;;;;;12915939;22;20399;-80
2024/01/11 15:39:05;;;;;;;22.02;10.15;;;;;;;;;;12917773;22;20368;-82
2024/01/11 15:44:08;;;;;;;21.05;10.45;;;;;;;;;;12910076;22;20455;-83
2024/01/11 15:49:12;;;;;;;18.47;11.23;;;;;;;;;;12910761;22;20426;-81
2024/01/11 15:54:15;;;;;;;17.48;10.23;;;;;;;;;;12910977;22;20369;-79
2024/01/11 15:59:18;;;;;;;19.90;10.77;;;;;;;;;;12902715;22;20442;-81
2024/01/11 16:04:22;;;;;;;19.80;10.97;;;;;;;;;;12901783;22;20384;-80
2024/01/11 16:09:24;;;;;;;31.20;15.40;;;;;;;;;;12899893;22;20900;-80
2024/01/11 16:14:28;;;;;;;27.23;15.38;;;;;;;;;;12902602;22;20376;-80
2024/01/11 16:19:33;;;;;;;31.02;14.70;;;;;;;;;;12912863;22;20480;-80
2024/01/11 16:24:35;;;;;;;25.83;14.57;;;;;;;;;;12962240;22;20846;-81
2024/01/11 16:29:39;;;;;;;30.83;15.13;;;;;;;;;;12964145;22;20441;-81
2024/01/11 16:34:43;;;;;;;28.50;14.00;;;;;;;;;;12965476;22;20411;-81
2024/01/11 16:39:45;;;;;;;23.77;12.93;;;;;;;;;;12965396;22;20740;-79
2024/01/11 16:44:48;;;;;;;26.38;13.13;;;;;;;;;;12961898;22;20421;-81
2024/01/11 16:49:52;;;;;;;21.67;12.55;;;;;;;;;;12966520;22;20421;-80
2024/01/11 16:54:54;;;;;;;27.02;15.23;;;;;;;;;;12966965;22;20967;-80
2024/01/11 16:59:56;;;;;;;26.85;14.00;;;;;;;;;;12965242;22;20846;-81
2024/01/11 17:05:00;;;;;;;24.83;13.65;;;;;;;;;;12963525;22;20413;-80
2024/01/11 17:10:03;;;;;;;21.50;12.93;;;;;;;;;;12968459;22;20374;-79
2024/01/11 17:15:06;;;;;;;27.15;12.82;;;;;;;;;;12966897;22;20363;-80
2024/01/11 17:20:13;;;;;;;25.00;14.88;;;;;;;;;;12963609;22;20378;-80
2024/01/11 17:25:15;;;;;;;25.50;15.13;;;;;;;;;;12964217;22;20408;-80
2024/01/11 17:30:17;;;;;;;33.63;15.80;;;;;;;;;;12965808;22;20382;-79
2024/01/11 17:35:21;;;;;;;31.52;17.02;;;;;;;;;;12969628;22;20386;-80
2024/01/11 17:40:23;;;;;;;45.17;22.25;;;;;;;;;;12968436;22;20948;-79
2024/01/11 17:45:26;;;;;;;41.55;22.33;;;;;;;;;;12968143;22;20387;-80
2024/01/11 17:50:31;;;;;;;35.70;19.00;;;;;;;;;;12969565;22;20382;-80
2024/01/11 17:55:33;;;;;;;33.03;17.38;;;;;;;;;;12966897;22;20375;-80
2024/01/11 18:00:35;;;;;;;34.63;19.25;;;;;;;;;;12968905;22;20421;-80
2024/01/11 18:05:39;;;;;;;35.73;20.13;;;;;;;;;;12969323;22;20418;-81
2024/01/11 18:10:41;;;;;;;61.20;34.28;;;;;;;;;;12977245;22;20378;-80
2024/01/11 18:15:44;;;;;;;64.67;36.40;;;;;;;;;;12970343;22;21522;-79
2024/01/11 18:20:49;;;;;;;46.13;25.42;;;;;;;;;;12969613;22;20387;-80
2024/01/11 18:25:51;;;;;;;45.38;25.02;;;;;;;;;;12965909;22;20481;-80
2024/01/11 18:30:54;;;;;;;55.87;27.90;;;;;;;;;;12966126;22;20984;-80
2024/01/11 18:35:57;;;;;;;64.97;34.55;;;;;;;;;;12971080;22;20416;-80
2024/01/11 18:41:00;;;;;;;84.97;44.50;;;;;;;;;;12975180;22;20416;-79
2024/01/11 18:46:03;;;;;;;59.42;32.22;;;;;;;;;;12971071;22;20367;-81
2024/01/11 18:51:06;;;;;;;68.60;37.38;;;;;;;;;;12968247;22;21046;-81
2024/01/11 18:56:14;;;;;;;59.10;30.95;;;;;;;;;;12966535;22;20436;-79
2024/01/11 19:01:17;;;;;;;52.15;28.58;;;;;;;;;;12967381;22;20382;-80
2024/01/11 19:06:21;;;;;;;48.23;27.53;;;;;;;;;;12972564;22;20379;-79
2024/01/11 19:11:23;;;;;;;62.67;32.20;;;;;;;;;;12969022;22;20448;-79
2024/01/11 19:16:25;;;;;;;58.50;34.27;;;;;;;;;;12966710;22;20648;-80
2024/01/11 19:21:29;;;;;;;79.18;39.10;;;;;;;;;;12965283;22;21182;-79
2024/01/11 19:26:31;;;;;;;53.83;29.00;;;;;;;;;;12966971;22;20703;-80
2024/01/11 19:31:34;;;;;;;71.32;36.78;;;;;;;;;;12968688;22;20362;-80
2024/01/11 19:36:40;;;;;;;59.65;33.47;;;;;;;;;;12967082;22;20412;-80
2024/01/11 19:41:42;;;;;;;77.13;36.65;;;;;;;;;;12968307;22;20914;-79
2024/01/11 19:46:45;;;;;;;44.07;24.90;;;;;;;;;;12968198;22;21352;-80
2024/01/11 19:51:48;;;;;;;50.67;27.70;;;;;;;;;;12967511;22;20378;-80
2024/01/11 19:56:51;;;;;;;44.97;26.13;;;;;;;;;;12974809;22;20452;-79
2024/01/11 20:01:53;;;;;;;47.08;24.92;;;;;;;;;;12974032;22;20870;-80
2024/01/11 20:06:57;;;;;;;47.97;26.43;;;;;;;;;;12979894;22;20846;-79
2024/01/11 20:11:59;;;;;;;44.90;25.35;;;;;;;;;;12966616;22;20448;-79
2024/01/11 20:17:02;;;;;;;48.95;27.95;;;;;;;;;;12967292;22;20382;-80
2024/01/11 20:22:05;;;;;;;50.03;27.27;;;;;;;;;;12966945;22;20459;-81
2024/01/11 20:27:08;;;;;;;49.00;26.42;;;;;;;;;;12968017;22;21170;-80
2024/01/11 20:32:10;;;;;;;71.47;36.77;;;;;;;;;;12965471;22;20359;-80
2024/01/11 20:37:14;;;;;;;52.42;29.85;;;;;;;;;;12966376;22;20444;-80
2024/01/11 20:42:16;;;;;;;48.10;28.33;;;;;;;;;;12965714;22;20386;-80
2024/01/11 20:47:22;;;;;;;49.00;27.23;;;;;;;;;;12965188;22;20455;-80
2024/01/11 20:52:26;;;;;;;47.65;26.40;;;;;;;;;;12966103;22;20375;-80
2024/01/11 20:57:28;;;;;;;46.88;26.67;;;;;;;;;;12971201;22;20382;-82
2024/01/11 21:02:30;;;;;;;50.80;26.77;;;;;;;;;;12965025;22;20444;-80
2024/01/11 21:07:34;;;;;;;48.77;27.50;;;;;;;;;;12969052;22;20374;-81
2024/01/11 21:12:37;;;;;;;50.08;26.50;;;;;;;;;;12970916;22;21075;-80
2024/01/11 21:17:39;;;;;;;43.80;26.13;;;;;;;;;;12971256;22;20373;-81
2024/01/11 21:22:43;;;;;;;51.10;26.52;;;;;;;;;;12970224;22;20378;-80
2024/01/11 21:27:45;;;;;;;49.63;27.20;;;;;;;;;;12973454;22;20751;-81
2024/01/11 21:32:47;;;;;;;49.10;27.40;;;;;;;;;;12967690;22;20413;-80
2024/01/11 21:37:51;;;;;;;51.53;28.53;;;;;;;;;;12965374;22;20404;-80
2024/01/11 21:42:54;;;;;;;51.05;28.45;;;;;;;;;;12967354;22;20460;-80
2024/01/11 21:47:56;;;;;;;52.28;28.70;;;;;;;;;;12967597;22;20414;-81
2024/01/11 21:53:00;;;;;;;51.30;28.25;;;;;;;;;;12972742;22;20851;-80
2024/01/11 21:58:02;;;;;;;51.47;29.25;;;;;;;;;;12965245;22;20436;-80
2024/01/11 22:03:05;;;;;;;50.90;27.70;;;;;;;;;;12968749;22;20386;-80
2024/01/11 22:08:09;;;;;;;75.60;36.42;;;;;;;;;;12967440;22;21114;-80
2024/01/11 22:13:12;;;;;;;55.00;30.13;;;;;;;;;;12966261;22;20382;-80
2024/01/11 22:18:14;;;;;;;50.17;29.80;;;;;;;;;;12969289;22;20379;-80
2024/01/11 22:23:18;;;;;;;49.83;27.85;;;;;;;;;;12973374;22;20379;-80
2024/01/11 22:28:20;;;;;;;46.58;25.58;;;;;;;;;;12978772;22;20367;-79
2024/01/11 22:33:22;;;;;;;40.92;24.02;;;;;;;;;;12974479;22;20424;-79
2024/01/11 22:38:27;;;;;;;33.42;19.35;;;;;;;;;;12978016;22;20401;-79
2024/01/11 22:43:30;;;;;;;36.53;19.65;;;;;;;;;;12975897;22;20386;-79
2024/01/11 22:48:33;;;;;;;34.08;18.80;;;;;;;;;;12986571;22;20440;-79
2024/01/11 22:53:36;;;;;;;31.27;18.17;;;;;;;;;;12978048;22;20358;-79
2024/01/11 22:58:39;;;;;;;28.80;16.70;;;;;;;;;;12977732;22;20424;-78
2024/01/11 23:03:41;;;;;;;32.35;16.85;;;;;;;;;;12978589;22;20444;-78
2024/01/11 23:08:45;;;;;;;25.80;16.15;;;;;;;;;;12977732;22;20371;-79
2024/01/11 23:13:47;;;;;;;28.00;15.75;;;;;;;;;;12977387;22;20397;-80
2024/01/11 23:18:49;;;;;;;26.70;15.55;;;;;;;;;;12979228;22;20366;-80
2024/01/11 23:23:53;;;;;;;28.15;15.40;;;;;;;;;;12975587;22;20379;-79
2024/01/11 23:28:55;;;;;;;27.50;14.63;;;;;;;;;;12977797;22;20428;-79
2024/01/11 23:33:57;;;;;;;23.13;14.17;;;;;;;;;;12977441;22;20375;-79
2024/01/11 23:39:01;;;;;;;26.35;15.07;;;;;;;;;;12976661;22;20367;-80
2024/01/11 23:44:04;;;;;;;22.85;13.55;;;;;;;;;;12987735;22;20382;-79
2024/01/11 23:49:08;;;;;;;24.48;14.30;;;;;;;;;;12977081;22;20367;-78
2024/01/11 23:54:12;;;;;;;25.17;13.95;;;;;;;;;;12976830;22;20362;-79
2024/01/11 23:59:18;;;;;;;25.60;13.50;;;;;;;;;;12974601;22;20834;-79
